createdAt,value
2019-05-17T00:00:37.489Z,11.97
2019-05-17T00:03:07.252Z,10.30
2019-05-17T00:05:37.509Z,11.35
2019-05-17T00:08:07.661Z,11.00
2019-05-17T00:10:37.646Z,14.43
2019-05-17T00:13:07.236Z,9.98
2019-05-17T00:15:37.160Z,14.68
2019-05-17T00:18:06.695Z,12.18
2019-05-17T00:20:37.541Z,16.40
2019-05-17T00:23:07.096Z,14.90
2019-05-17T00:25:36.879Z,14.47
2019-05-17T00:28:07.252Z,11.35
2019-05-17T00:30:37.197Z,11.22
2019-05-17T00:33:07.877Z,14.90
2019-05-17T00:35:37.767Z,12.13
2019-05-17T00:38:07.021Z,14.63
2019-05-17T00:40:36.539Z,10.68
2019-05-17T00:43:06.831Z,21.45
2019-05-17T00:45:37.591Z,14.25
2019-05-17T00:48:06.645Z,14.47
2019-05-17T00:50:37.876Z,10.98
2019-05-17T00:53:07.341Z,13.98
2019-05-17T00:55:36.468Z,13.98
2019-05-17T00:58:06.807Z,9.30
2019-05-17T01:00:37.627Z,10.48
2019-05-17T01:03:07.123Z,12.37
2019-05-17T01:05:37.029Z,12.80
2019-05-17T01:08:07.294Z,17.40
2019-05-17T01:10:36.956Z,13.32
2019-05-17T01:13:06.770Z,10.90
2019-05-17T01:15:36.847Z,13.70
2019-05-17T01:18:07.147Z,11.15
2019-05-17T01:20:37.160Z,15.35
2019-05-17T01:23:07.627Z,12.82
2019-05-17T01:25:37.757Z,15.18
2019-05-17T01:28:07.819Z,13.55
2019-05-17T01:30:37.526Z,20.65
2019-05-17T01:33:06.798Z,20.05
2019-05-17T01:35:37.457Z,17.02
2019-05-17T01:38:07.300Z,17.62
2019-05-17T01:40:37.349Z,19.10
2019-05-17T01:43:07.833Z,20.48
2019-05-17T01:45:36.837Z,20.65
2019-05-17T01:48:07.301Z,19.60
2019-05-17T01:50:37.288Z,24.98
2019-05-17T01:53:07.471Z,20.50
2019-05-17T01:55:37.417Z,20.77
2019-05-17T01:58:07.383Z,21.73
2019-05-17T02:00:37.544Z,24.43
2019-05-17T02:03:07.181Z,20.75
2019-05-17T02:05:37.342Z,22.73
2019-05-17T02:08:07.330Z,22.02
2019-05-17T02:10:37.615Z,20.48
2019-05-17T02:13:06.835Z,23.30
2019-05-17T02:15:37.722Z,22.85
2019-05-17T02:18:07.008Z,27.90
2019-05-17T02:20:37.191Z,24.67
2019-05-17T02:23:07.276Z,26.20
2019-05-17T02:25:36.953Z,25.08
2019-05-17T02:28:06.309Z,29.25
2019-05-17T02:30:35.233Z,28.80
2019-05-17T02:33:04.513Z,28.02
2019-05-17T02:35:34.079Z,26.45
2019-05-17T02:38:03.436Z,26.27
2019-05-17T02:40:34.151Z,25.82
2019-05-17T02:43:03.468Z,24.70
2019-05-17T02:45:33.036Z,32.03
2019-05-17T02:48:03.597Z,25.75
2019-05-17T02:50:33.459Z,29.23
2019-05-17T02:53:04.429Z,26.82
2019-05-17T02:55:33.664Z,28.85
2019-05-17T02:58:03.367Z,32.15
2019-05-17T03:00:33.865Z,30.88
2019-05-17T03:03:04.403Z,33.05
2019-05-17T03:05:34.100Z,29.20
2019-05-17T03:08:04.241Z,35.17
2019-05-17T03:10:33.657Z,30.88
2019-05-17T03:13:03.974Z,31.20
2019-05-17T03:15:33.526Z,33.53
2019-05-17T03:18:03.804Z,31.87
2019-05-17T03:20:33.171Z,33.85
2019-05-17T03:23:03.737Z,33.98
2019-05-17T03:25:33.418Z,33.73
2019-05-17T03:28:04.093Z,32.67
2019-05-17T03:30:36.299Z,31.60
2019-05-17T03:33:07.252Z,31.82
2019-05-17T03:35:38.007Z,32.05
2019-05-17T03:38:06.058Z,35.52
2019-05-17T03:41:03.260Z,37.28
2019-05-17T03:43:05.311Z,35.35
2019-05-17T03:45:34.350Z,38.60
2019-05-17T03:48:04.841Z,36.95
2019-05-17T03:50:34.007Z,35.38
2019-05-17T03:53:03.233Z,39.33
2019-05-17T03:55:33.280Z,41.55
2019-05-17T03:58:03.641Z,35.38
2019-05-17T04:00:35.494Z,37.88
2019-05-17T04:03:03.383Z,41.63
2019-05-17T04:05:33.357Z,40.05
2019-05-17T04:08:03.779Z,41.20
2019-05-17T04:10:33.738Z,40.52
2019-05-17T04:13:04.135Z,42.90
2019-05-17T04:15:33.338Z,42.73
2019-05-17T04:18:04.341Z,41.50
2019-05-17T04:20:33.489Z,44.65
2019-05-17T04:23:03.866Z,45.12
2019-05-17T04:25:33.846Z,51.35
2019-05-17T04:28:03.314Z,50.88
2019-05-17T04:30:32.837Z,50.23
2019-05-17T04:33:03.368Z,46.20
2019-05-17T04:35:32.831Z,48.10
2019-05-17T04:38:04.281Z,44.95
2019-05-17T04:40:33.934Z,46.20
2019-05-17T04:43:03.580Z,47.33
2019-05-17T04:45:33.822Z,46.37
2019-05-17T04:48:04.141Z,48.58
2019-05-17T04:50:34.749Z,50.55
2019-05-17T04:53:03.496Z,51.30
2019-05-17T04:55:34.067Z,50.92
2019-05-17T04:58:04.088Z,50.25
2019-05-17T05:00:34.307Z,53.78
2019-05-17T05:03:04.544Z,55.83
2019-05-17T05:05:33.634Z,57.62
2019-05-17T05:08:03.359Z,57.80
2019-05-17T05:10:33.844Z,59.67
2019-05-17T05:13:03.275Z,57.17
2019-05-17T05:15:44.854Z,59.23
2019-05-17T05:18:14.056Z,58.40
2019-05-17T05:20:43.451Z,62.45
2019-05-17T05:23:13.183Z,58.73
2019-05-17T05:25:42.967Z,57.98
2019-05-17T05:28:12.045Z,53.95
2019-05-17T05:30:42.208Z,55.92
2019-05-17T05:33:12.784Z,57.00
2019-05-17T05:35:47.615Z,50.25
2019-05-17T05:38:16.498Z,52.33
2019-05-17T05:40:45.227Z,50.33
2019-05-17T05:43:13.966Z,53.28
2019-05-17T05:45:42.714Z,50.73
2019-05-17T05:48:12.894Z,49.15
2019-05-17T05:50:43.210Z,50.70
2019-05-17T05:53:12.905Z,48.73
2019-05-17T05:55:43.011Z,50.65
2019-05-17T05:58:12.649Z,54.40
2019-05-17T06:00:42.659Z,50.65
2019-05-17T06:03:12.355Z,52.45
2019-05-17T06:05:42.184Z,55.67
2019-05-17T06:08:12.277Z,52.30
2019-05-17T06:10:42.550Z,52.13
2019-05-17T06:13:13.064Z,51.42
2019-05-17T06:15:42.934Z,57.85
2019-05-17T06:18:12.541Z,54.73
2019-05-17T06:20:41.980Z,50.33
2019-05-17T06:23:12.379Z,52.83
2019-05-17T06:25:43.522Z,51.00
2019-05-17T06:28:11.849Z,53.08
2019-05-17T06:30:42.943Z,50.10
2019-05-17T06:33:12.001Z,54.67
2019-05-17T06:35:42.428Z,51.23
2019-05-17T06:38:12.272Z,50.25
2019-05-17T06:40:42.108Z,48.00
2019-05-17T06:43:13.058Z,47.13
2019-05-17T06:45:42.042Z,52.88
2019-05-17T06:48:11.698Z,48.65
2019-05-17T06:50:43.032Z,50.92
2019-05-17T06:53:12.593Z,51.08
2019-05-17T06:55:42.562Z,50.80
2019-05-17T06:58:12.242Z,47.73
2019-05-17T07:00:41.339Z,48.33
2019-05-17T07:03:10.097Z,48.25
2019-05-17T07:05:40.830Z,45.98
2019-05-17T07:08:10.872Z,48.42
2019-05-17T07:10:40.179Z,52.40
2019-05-17T07:13:10.589Z,52.27
2019-05-17T07:15:47.365Z,53.63
2019-05-17T07:18:10.465Z,57.15
2019-05-17T07:20:39.683Z,54.77
2019-05-17T07:23:10.750Z,55.35
2019-05-17T07:25:39.700Z,58.17
2019-05-17T07:28:10.016Z,58.02
2019-05-17T07:30:40.050Z,57.27
2019-05-17T07:33:10.214Z,54.18
2019-05-17T07:35:39.800Z,58.58
2019-05-17T07:38:10.716Z,57.03
2019-05-17T07:40:40.113Z,59.70
2019-05-17T07:43:14.368Z,57.30
2019-05-17T07:45:40.416Z,55.05
2019-05-17T07:48:09.925Z,52.13
2019-05-17T07:50:39.763Z,56.53
2019-05-17T07:53:10.370Z,58.10
2019-05-17T07:55:39.938Z,50.50
2019-05-17T07:58:09.972Z,57.45
2019-05-17T08:00:40.031Z,55.67
2019-05-17T08:03:12.794Z,51.42
2019-05-17T08:05:40.247Z,55.52
2019-05-17T08:08:10.933Z,51.35
2019-05-17T08:10:41.379Z,46.23
2019-05-17T08:13:24.771Z,48.78
2019-05-17T08:15:41.682Z,50.55
2019-05-17T08:18:11.845Z,51.50
2019-05-17T08:20:41.585Z,49.93
2019-05-17T08:23:11.672Z,47.17
2019-05-17T08:25:52.023Z,47.30
2019-05-17T08:28:11.289Z,44.93
2019-05-17T08:30:40.830Z,48.65
2019-05-17T08:33:10.899Z,51.40
2019-05-17T08:35:40.487Z,47.43
2019-05-17T08:38:10.280Z,43.20
2019-05-17T08:40:40.554Z,44.25
2019-05-17T08:43:10.155Z,41.68
2019-05-17T08:45:40.753Z,44.73
2019-05-17T08:48:09.976Z,46.75
2019-05-17T08:50:40.299Z,46.05
2019-05-17T08:53:10.661Z,47.62
2019-05-17T08:55:41.098Z,46.70
2019-05-17T08:58:10.593Z,48.73
2019-05-17T09:00:40.714Z,49.73
2019-05-17T09:03:10.727Z,53.40
2019-05-17T09:05:41.662Z,53.20
2019-05-17T09:08:10.660Z,52.08
2019-05-17T09:10:40.772Z,45.95
2019-05-17T09:13:12.272Z,47.50
2019-05-17T09:15:40.260Z,47.98
2019-05-17T09:18:09.837Z,47.80
2019-05-17T09:20:40.528Z,47.75
2019-05-17T09:23:09.843Z,47.75
2019-05-17T09:25:39.696Z,46.95
2019-05-17T09:28:10.266Z,46.02
2019-05-17T09:30:40.437Z,46.90
2019-05-17T09:33:11.230Z,41.92
2019-05-17T09:35:40.976Z,38.40
2019-05-17T09:38:10.686Z,41.08
2019-05-17T09:40:40.258Z,39.18
2019-05-17T09:43:10.272Z,44.48
2019-05-17T09:45:40.598Z,42.27
2019-05-17T09:48:10.639Z,41.28
2019-05-17T09:50:40.089Z,42.90
2019-05-17T09:53:10.816Z,43.92
2019-05-17T09:55:39.842Z,41.37
2019-05-17T09:58:09.957Z,38.02
2019-05-17T10:00:39.250Z,40.78
2019-05-17T10:03:09.786Z,34.92
2019-05-17T10:05:40.542Z,36.77
2019-05-17T10:08:11.043Z,33.65
2019-05-17T10:10:40.286Z,38.70
2019-05-17T10:13:09.829Z,36.17
2019-05-17T10:15:40.949Z,35.23
2019-05-17T10:18:11.069Z,35.85
2019-05-17T10:20:40.261Z,36.73
2019-05-17T10:23:10.421Z,36.55
2019-05-17T10:25:40.192Z,40.63
2019-05-17T10:28:10.024Z,34.80
2019-05-17T10:30:39.928Z,40.28
2019-05-17T10:33:09.803Z,41.28
2019-05-17T10:35:40.778Z,34.92
2019-05-17T10:38:10.260Z,33.95
2019-05-17T10:40:40.981Z,35.83
2019-05-17T10:43:10.387Z,42.98
2019-05-17T10:45:40.072Z,36.03
2019-05-17T10:48:10.392Z,35.83
2019-05-17T10:50:40.799Z,37.25
2019-05-17T10:53:10.218Z,39.88
2019-05-17T10:55:39.739Z,34.45
2019-05-17T10:58:10.045Z,35.73
2019-05-17T11:00:41.409Z,36.45
2019-05-17T11:03:10.048Z,40.70
2019-05-17T11:05:40.263Z,39.15
2019-05-17T11:08:10.691Z,33.25
2019-05-17T11:10:39.830Z,38.15
2019-05-17T11:13:09.667Z,36.13
2019-05-17T11:15:38.398Z,33.67
2019-05-17T11:18:07.163Z,35.55
2019-05-17T11:20:36.088Z,30.35
2019-05-17T11:23:07.292Z,29.48
2019-05-17T11:25:36.625Z,28.70
2019-05-17T11:28:05.441Z,26.70
2019-05-17T11:30:34.175Z,41.70
2019-05-17T11:33:02.939Z,27.50
2019-05-17T11:35:31.748Z,28.30
2019-05-17T11:38:00.512Z,23.50
2019-05-17T11:40:29.326Z,22.42
2019-05-17T11:42:58.131Z,24.92
2019-05-17T11:45:30.245Z,23.12
2019-05-17T11:47:57.345Z,22.58
2019-05-17T11:50:26.097Z,20.48
2019-05-17T11:52:54.902Z,20.08
2019-05-17T11:55:23.561Z,18.92
2019-05-17T11:57:52.336Z,18.15
2019-05-17T12:00:21.812Z,17.10
2019-05-17T12:02:50.569Z,21.45
2019-05-17T12:05:19.329Z,16.55
2019-05-17T12:07:48.098Z,19.87
2019-05-17T12:10:17.172Z,19.27
2019-05-17T12:12:45.927Z,20.23
2019-05-17T12:15:15.033Z,20.72
2019-05-17T12:17:43.809Z,17.75
2019-05-17T12:20:13.091Z,19.95
2019-05-17T12:22:41.793Z,18.95
2019-05-17T12:25:10.604Z,17.98
2019-05-17T12:27:39.335Z,18.70
2019-05-17T12:30:09.843Z,22.52
2019-05-17T12:32:38.812Z,25.17
2019-05-17T12:35:07.648Z,19.17
2019-05-17T12:37:36.386Z,19.65
2019-05-17T12:40:07.196Z,19.00
2019-05-17T12:42:35.929Z,22.20
2019-05-17T12:45:08.334Z,18.92
2019-05-17T12:47:37.128Z,21.97
2019-05-17T12:50:08.722Z,22.40
2019-05-17T12:52:37.470Z,21.50
2019-05-17T12:55:06.843Z,18.67
2019-05-17T12:57:35.589Z,20.37
2019-05-17T13:00:06.576Z,18.70
2019-05-17T13:02:35.322Z,20.55
2019-05-17T13:05:05.201Z,15.45
2019-05-17T13:07:33.938Z,16.67
2019-05-17T13:10:03.162Z,22.55
2019-05-17T13:12:31.890Z,20.68
2019-05-17T13:15:00.658Z,18.95
2019-05-17T13:17:29.446Z,18.75
2019-05-17T13:19:58.242Z,22.90
2019-05-17T13:22:27.057Z,23.20
2019-05-17T13:24:55.860Z,20.43
2019-05-17T13:27:24.594Z,21.75
2019-05-17T13:29:53.352Z,23.38
2019-05-17T13:32:22.112Z,19.00
2019-05-17T13:34:50.911Z,18.35
2019-05-17T13:37:19.650Z,22.52
2019-05-17T13:39:48.566Z,19.70
2019-05-17T13:42:17.306Z,23.42
2019-05-17T13:44:46.035Z,22.13
2019-05-17T13:47:14.928Z,18.92
2019-05-17T13:49:43.690Z,19.50
2019-05-17T13:52:12.521Z,21.62
2019-05-17T13:54:41.255Z,23.22
2019-05-17T13:57:11.472Z,19.98
2019-05-17T13:59:40.449Z,20.37
2019-05-17T14:02:09.261Z,24.75
2019-05-17T14:04:37.994Z,18.92
2019-05-17T14:07:06.878Z,19.05
2019-05-17T14:09:35.659Z,19.00
2019-05-17T14:12:04.554Z,20.68
2019-05-17T14:14:33.382Z,23.25
2019-05-17T14:17:02.476Z,21.10
2019-05-17T14:19:31.318Z,21.62
2019-05-17T14:22:00.054Z,22.17
2019-05-17T14:24:28.822Z,23.47
2019-05-17T14:26:57.554Z,22.40
2019-05-17T14:29:26.355Z,21.50
2019-05-17T14:31:55.106Z,22.85
2019-05-17T14:34:23.857Z,20.08
2019-05-17T14:36:52.578Z,22.40
2019-05-17T14:39:21.321Z,21.55
2019-05-17T14:41:50.064Z,34.03
2019-05-17T14:44:18.802Z,27.05
2019-05-17T14:46:47.626Z,23.67
2019-05-17T14:49:16.370Z,26.30
2019-05-17T14:51:45.106Z,23.70
2019-05-17T14:54:13.867Z,25.05
2019-05-17T14:56:42.949Z,24.60
2019-05-17T14:59:11.685Z,23.80
2019-05-17T15:01:40.441Z,22.75
2019-05-17T15:04:09.182Z,24.52
2019-05-17T15:06:37.946Z,24.63
2019-05-17T15:09:07.085Z,24.20
2019-05-17T15:11:35.910Z,32.42
2019-05-17T15:14:04.833Z,22.35
2019-05-17T15:16:33.601Z,22.27
2019-05-17T15:19:02.354Z,21.87
2019-05-17T15:21:31.079Z,22.82
2019-05-17T15:23:59.820Z,23.47
2019-05-17T15:26:28.625Z,22.00
2019-05-17T15:28:57.380Z,22.85
2019-05-17T15:31:26.118Z,23.98
2019-05-17T15:33:54.878Z,20.50
2019-05-17T15:36:23.650Z,22.02
2019-05-17T15:38:52.353Z,20.70
2019-05-17T15:41:21.090Z,26.77
2019-05-17T15:43:49.856Z,18.92
2019-05-17T15:46:18.572Z,21.20
2019-05-17T15:48:47.310Z,18.90
2019-05-17T15:51:16.001Z,19.00
2019-05-17T15:53:44.728Z,18.37
2019-05-17T15:56:13.496Z,18.48
2019-05-17T15:58:42.314Z,18.85
2019-05-17T16:01:11.058Z,20.52
2019-05-17T16:03:39.783Z,22.10
2019-05-17T16:06:08.517Z,27.07
2019-05-17T16:08:37.326Z,20.97
2019-05-17T16:11:06.199Z,17.75
2019-05-17T16:13:35.057Z,18.40
2019-05-17T16:16:03.798Z,21.10
2019-05-17T16:18:32.564Z,18.50
2019-05-17T16:21:01.366Z,22.10
2019-05-17T16:23:30.101Z,17.55
2019-05-17T16:25:58.842Z,19.27
2019-05-17T16:28:27.568Z,17.77
2019-05-17T16:30:56.327Z,20.55
2019-05-17T16:33:25.070Z,17.48
2019-05-17T16:35:53.800Z,18.62
2019-05-17T16:38:22.546Z,17.50
2019-05-17T16:40:51.368Z,17.07
2019-05-17T16:43:20.150Z,21.02
2019-05-17T16:45:48.894Z,17.80
2019-05-17T16:48:17.637Z,18.73
2019-05-17T16:50:46.605Z,17.15
2019-05-17T16:53:15.410Z,19.42
2019-05-17T16:55:44.081Z,18.15
2019-05-17T16:58:12.825Z,19.52
2019-05-17T17:00:43.118Z,19.95
2019-05-17T17:03:11.919Z,20.20
2019-05-17T17:05:40.738Z,20.37
2019-05-17T17:08:09.611Z,19.20
2019-05-17T17:10:38.478Z,19.05
2019-05-17T17:13:07.289Z,17.48
2019-05-17T17:15:36.104Z,20.02
2019-05-17T17:18:05.502Z,17.07
2019-05-17T17:20:34.241Z,17.70
2019-05-17T17:23:03.006Z,19.82
2019-05-17T17:25:31.805Z,20.65
2019-05-17T17:28:00.633Z,24.12
2019-05-17T17:30:29.363Z,19.02
2019-05-17T17:32:58.160Z,18.62
2019-05-17T17:35:26.901Z,18.87
2019-05-17T17:37:55.624Z,23.25
2019-05-17T17:40:25.597Z,17.48
2019-05-17T17:42:54.274Z,17.37
2019-05-17T17:45:26.585Z,21.33
2019-05-17T17:47:55.328Z,21.65
2019-05-17T17:50:24.077Z,20.95
2019-05-17T17:52:53.272Z,19.95
2019-05-17T17:55:22.329Z,20.08
2019-05-17T17:57:51.186Z,20.50
2019-05-17T18:00:21.470Z,20.35
2019-05-17T18:02:50.219Z,18.02
2019-05-17T18:05:19.038Z,16.27
2019-05-17T18:07:47.788Z,17.82
2019-05-17T18:10:31.282Z,17.65
2019-05-17T18:13:00.186Z,18.48
2019-05-17T18:15:40.902Z,19.95
2019-05-17T18:18:09.867Z,18.95
2019-05-17T18:20:38.730Z,20.75
2019-05-17T18:23:07.652Z,23.32
2019-05-17T18:25:36.565Z,18.57
2019-05-17T18:28:06.606Z,17.80
2019-05-17T18:30:36.225Z,19.48
2019-05-17T18:33:05.527Z,17.73
2019-05-17T18:35:34.993Z,20.20
2019-05-17T18:38:03.985Z,22.35
2019-05-17T18:40:32.854Z,16.60
2019-05-17T18:43:01.570Z,16.40
2019-05-17T18:45:30.576Z,26.82
2019-05-17T18:47:59.853Z,21.82
2019-05-17T18:50:29.107Z,18.40
2019-05-17T18:52:58.008Z,21.95
2019-05-17T18:55:26.725Z,17.92
2019-05-17T18:57:55.456Z,17.27
2019-05-17T19:00:24.374Z,19.40
2019-05-17T19:02:53.154Z,21.23
2019-05-17T19:05:22.031Z,18.32
2019-05-17T19:07:51.197Z,19.07
2019-05-17T19:10:20.072Z,18.52
2019-05-17T19:12:48.905Z,18.12
2019-05-17T19:15:19.099Z,17.77
2019-05-17T19:17:47.829Z,20.65
2019-05-17T19:20:16.725Z,20.92
2019-05-17T19:22:45.453Z,17.65
2019-05-17T19:25:17.404Z,22.27
2019-05-17T19:27:46.138Z,17.50
2019-05-17T19:30:15.526Z,17.15
2019-05-17T19:32:44.316Z,20.10
2019-05-17T19:35:13.313Z,20.20
2019-05-17T19:37:42.055Z,19.90
2019-05-17T19:40:11.754Z,17.35
2019-05-17T19:42:40.489Z,21.87
2019-05-17T19:45:09.527Z,21.02
2019-05-17T19:47:38.290Z,18.73
2019-05-17T19:50:08.052Z,20.17
2019-05-17T19:52:36.779Z,19.07
2019-05-17T19:55:09.010Z,19.80
2019-05-17T19:57:37.753Z,19.85
2019-05-17T20:00:08.915Z,19.42
2019-05-17T20:02:37.676Z,18.92
2019-05-17T20:05:07.483Z,21.40
2019-05-17T20:07:38.838Z,19.27
2019-05-17T20:10:08.677Z,19.30
2019-05-17T20:12:37.420Z,23.05
2019-05-17T20:15:17.164Z,19.60
2019-05-17T20:17:38.526Z,20.50
2019-05-17T20:20:08.499Z,20.17
2019-05-17T20:22:37.383Z,21.90
2019-05-17T20:25:07.235Z,20.88
2019-05-17T20:27:36.474Z,19.20
2019-05-17T20:30:08.810Z,25.20
2019-05-17T20:32:37.743Z,24.97
2019-05-17T20:35:07.704Z,22.82
2019-05-17T20:37:36.577Z,20.45
2019-05-17T20:40:08.871Z,26.93
2019-05-17T20:42:37.598Z,24.92
2019-05-17T20:45:09.043Z,25.77
2019-05-17T20:47:37.771Z,22.55
2019-05-17T20:50:08.549Z,23.95
2019-05-17T20:52:37.205Z,27.25
2019-05-17T20:55:06.595Z,25.95
2019-05-17T20:57:35.453Z,28.55
2019-05-17T21:00:06.831Z,26.00
2019-05-17T21:02:35.565Z,25.52
2019-05-17T21:05:07.125Z,26.57
2019-05-17T21:07:35.894Z,33.05
2019-05-17T21:10:05.956Z,23.55
2019-05-17T21:12:34.687Z,27.20
2019-05-17T21:15:04.569Z,29.67
2019-05-17T21:17:33.295Z,27.02
2019-05-17T21:20:02.038Z,25.25
2019-05-17T21:22:30.781Z,25.97
2019-05-17T21:24:59.834Z,30.97
2019-05-17T21:27:30.215Z,28.50
2019-05-17T21:29:59.220Z,27.93
2019-05-17T21:32:29.985Z,28.42
2019-05-17T21:35:01.687Z,27.60
2019-05-17T21:37:30.425Z,28.92
2019-05-17T21:39:59.184Z,30.27
2019-05-17T21:42:27.911Z,27.82
2019-05-17T21:44:56.659Z,35.20
2019-05-17T21:47:25.378Z,28.30
2019-05-17T21:49:54.045Z,27.90
2019-05-17T21:52:22.787Z,27.62
2019-05-17T21:54:51.529Z,28.40
2019-05-17T21:57:20.349Z,29.42
2019-05-17T21:59:49.109Z,33.95
2019-05-17T22:02:17.846Z,28.47
2019-05-17T22:04:46.586Z,28.90
2019-05-17T22:07:15.353Z,29.12
2019-05-17T22:09:44.076Z,29.20
2019-05-17T22:12:14.186Z,32.38
2019-05-17T22:14:43.002Z,30.45
2019-05-17T22:17:12.049Z,29.85
2019-05-17T22:19:43.701Z,31.05
2019-05-17T22:22:12.438Z,30.02
2019-05-17T22:24:41.123Z,29.90
2019-05-17T22:27:09.861Z,29.70
2019-05-17T22:29:38.528Z,30.95
2019-05-17T22:32:07.262Z,29.40
2019-05-17T22:34:36.030Z,31.17
2019-05-17T22:37:04.892Z,28.52
2019-05-17T22:39:35.173Z,28.17
2019-05-17T22:42:03.899Z,30.27
2019-05-17T22:44:35.348Z,31.75
2019-05-17T22:47:04.144Z,32.50
2019-05-17T22:49:33.032Z,37.65
2019-05-17T22:52:01.804Z,30.27
2019-05-17T22:54:30.537Z,28.12
2019-05-17T22:56:59.277Z,29.23
2019-05-17T22:59:28.069Z,32.60
2019-05-17T23:01:56.792Z,28.45
2019-05-17T23:04:25.552Z,35.15
2019-05-17T23:06:54.351Z,31.82
2019-05-17T23:09:23.071Z,30.20
2019-05-17T23:11:51.820Z,32.20
2019-05-17T23:14:20.562Z,30.37
2019-05-17T23:16:51.879Z,29.92
2019-05-17T23:19:19.638Z,28.60
2019-05-17T23:21:48.380Z,31.17
2019-05-17T23:24:17.129Z,28.47
2019-05-17T23:26:45.856Z,32.08
2019-05-17T23:29:14.606Z,28.20
2019-05-17T23:31:43.345Z,29.85
2019-05-17T23:34:12.100Z,31.00
2019-05-17T23:36:43.764Z,30.88
2019-05-17T23:39:12.578Z,27.75
2019-05-17T23:41:41.305Z,30.23
2019-05-17T23:44:10.030Z,33.42
2019-05-17T23:46:38.795Z,32.45
2019-05-17T23:49:07.543Z,31.52
2019-05-17T23:54:07.498Z,34.25
2019-05-17T23:56:36.161Z,30.12
2019-05-17T23:59:05.083Z,29.80
